Time;durP1;ratioP1;P1;durP2;ratioP2;P2;SDS_P1;SDS_P2;PMS_P1;PMS_P2;Temp;Humidity;BMP_temperature;BMP_pressure;BME280_temperature;BME280_humidity;BME280_pressure;Samples;Min_cycle;Max_cycle;Signal;HPM_P1;HPM_P2
2023/10/13 00:02:18;;;;;;;15.10;3.35;;;;;;;10.24;100.00;100545.69;4981866;28;20435;-90
2023/10/13 00:04:47;;;;;;;11.13;3.25;;;;;;;10.32;100.00;100575.03;5008064;28;20419;-90
2023/10/13 00:07:17;;;;;;;19.13;3.60;;;;;;;10.24;100.00;100551.13;5000896;28;20416;-88
2023/10/13 00:09:46;;;;;;;8.77;3.30;;;;;;;10.30;100.00;100554.63;5011691;28;20420;-90
2023/10/13 00:12:15;;;;;;;12.85;3.55;;;;;;;10.39;100.00;100561.16;4990582;28;20420;-90
2023/10/13 00:14:50;;;;;;;11.50;2.95;;;;;;;10.29;100.00;100542.13;5011288;28;20417;-89
2023/10/13 00:17:20;;;;;;;11.27;3.65;;;;;;;10.31;100.00;100548.13;5010350;28;20780;-92
2023/10/13 00:19:52;;;;;;;15.82;3.47;;;;;;;10.38;100.00;100562.25;5009406;28;20393;-90
2023/10/13 00:22:22;;;;;;;15.18;3.53;;;;;;;10.36;100.00;100550.84;5013417;28;20417;-90
2023/10/13 00:24:51;;;;;;;13.75;3.20;;;;;;;10.42;100.00;100548.91;4992530;28;20809;-91
2023/10/13 00:27:33;;;;;;;13.75;3.70;;;;;;;10.36;100.00;100534.53;5006659;28;20412;-89
2023/10/13 00:30:17;;;;;;;12.50;3.38;;;;;;;10.40;100.00;100542.91;5010254;28;20433;-90
2023/10/13 00:32:53;;;;;;;14.45;3.70;;;;;;;10.31;100.00;100524.44;5012809;28;20925;-90
2023/10/13 00:35:28;;;;;;;15.70;3.55;;;;;;;10.42;100.00;100538.00;4999936;28;20426;-91
2023/10/13 00:38:03;;;;;;;14.45;3.35;;;;;;;10.42;100.00;100546.19;4993802;28;20430;-90
2023/10/13 00:40:43;;;;;;;14.10;3.53;;;;;;;10.33;100.00;100530.41;4995450;28;20422;-90
2023/10/13 00:43:34;;;;;;;12.32;3.55;;;;;;;10.41;100.00;100542.63;5002063;28;20760;-90
2023/10/13 00:46:13;;;;;;;14.48;3.60;;;;;;;10.49;100.00;100533.06;5006927;28;20426;-89
2023/10/13 00:48:45;;;;;;;12.68;3.75;;;;;;;10.46;100.00;100536.34;4998812;28;20421;-90
2023/10/13 00:51:18;;;;;;;14.80;3.50;;;;;;;10.34;100.00;100517.63;5001317;28;20430;-92
2023/10/13 00:53:48;;;;;;;15.32;3.35;;;;;;;10.37;100.00;100515.19;5003472;28;20476;-91
2023/10/13 00:56:19;;;;;;;16.07;3.47;;;;;;;10.50;100.00;100523.81;5004341;28;20441;-90
2023/10/13 00:58:50;;;;;;;13.57;3.15;;;;;;;10.42;100.00;100508.88;5006076;28;20417;-90
2023/10/13 01:01:17;;;;;;;11.73;3.70;;;;;;;10.38;100.00;100488.78;5002683;28;20510;-89
2023/10/13 01:03:48;;;;;;;12.77;3.40;;;;;;;10.46;100.00;100499.06;5007286;28;20433;-92
2023/10/13 01:06:16;;;;;;;14.52;3.58;;;;;;;10.52;100.00;100510.72;5008320;28;21119;-90
2023/10/13 01:08:50;;;;;;;10.70;3.30;;;;;;;10.39;100.00;100487.69;4993411;28;20429;-91
2023/10/13 01:11:19;;;;;;;13.98;3.60;;;;;;;10.36;100.00;100477.41;5009683;28;20425;-91
2023/10/13 01:13:51;;;;;;;12.00;3.10;;;;;;;10.36;100.00;100471.94;5012103;28;20420;-91
2023/10/13 01:16:23;;;;;;;14.35;3.70;;;;;;;10.38;100.00;100480.63;5000018;28;21163;-91
2023/10/13 01:18:51;;;;;;;14.30;3.85;;;;;;;10.45;100.00;100488.47;4989389;28;20434;-90
2023/10/13 01:21:20;;;;;;;16.15;3.53;;;;;;;10.55;100.00;100496.56;5011607;28;20934;-90
2023/10/13 01:23:50;;;;;;;11.35;3.50;;;;;;;10.44;100.00;100471.34;5003098;28;20434;-91
2023/10/13 01:26:23;;;;;;;17.08;3.78;;;;;;;10.52;100.00;100476.19;5002714;28;20431;-91
2023/10/13 01:28:54;;;;;;;13.90;3.70;;;;;;;10.54;100.00;100478.63;5000564;28;20441;-91
2023/10/13 01:31:26;;;;;;;13.63;4.05;;;;;;;10.61;100.00;100481.81;4988755;28;20435;-91
2023/10/13 01:34:01;;;;;;;13.25;3.95;;;;;;;10.64;100.00;100478.50;4990374;28;21304;-90
2023/10/13 01:36:35;;;;;;;15.65;4.28;;;;;;;10.53;100.00;100458.75;4979095;28;20420;-91
2023/10/13 01:39:05;;;;;;;15.52;3.90;;;;;;;10.62;100.00;100471.72;5008364;28;20411;-90
2023/10/13 01:41:32;;;;;;;16.40;4.22;;;;;;;10.61;100.00;100457.31;4998339;28;20426;-89
2023/10/13 01:44:06;;;;;;;16.17;4.28;;;;;;;10.60;100.00;100452.97;5006905;28;20421;-90
2023/10/13 01:46:36;;;;;;;15.98;4.28;;;;;;;10.59;100.00;100454.06;4996861;28;20424;-90
2023/10/13 01:49:07;;;;;;;16.73;4.82;;;;;;;10.59;100.00;100435.00;4991593;28;20893;-91
2023/10/13 01:51:35;;;;;;;15.20;4.95;;;;;;;10.60;100.00;100435.84;4992287;28;20426;-90
2023/10/13 01:54:11;;;;;;;19.17;4.88;;;;;;;10.72;100.00;100444.44;4996631;28;20818;-91
2023/10/13 01:56:42;;;;;;;16.77;5.45;;;;;;;10.76;100.00;100437.31;5004688;28;21056;-90
2023/10/13 01:59:11;;;;;;;19.63;5.50;;;;;;;10.67;100.00;100420.78;5007436;28;20946;-89
2023/10/13 02:01:41;;;;;;;17.33;5.60;;;;;;;10.77;100.00;100428.06;4997964;28;20425;-91
2023/10/13 02:04:10;;;;;;;17.38;5.63;;;;;;;10.84;100.00;100422.25;4990367;28;20435;-91
2023/10/13 02:06:38;;;;;;;20.42;5.97;;;;;;;10.87;100.00;100425.22;5000944;28;20447;-91
2023/10/13 02:09:12;;;;;;;19.00;6.13;;;;;;;10.88;100.00;100417.88;5006391;28;20431;-90
2023/10/13 02:11:42;;;;;;;21.85;6.45;;;;;;;10.91;100.00;100409.16;4981734;28;20445;-89
2023/10/13 02:14:11;;;;;;;24.08;7.03;;;;;;;10.92;100.00;100418.91;5004700;28;20413;-91
2023/10/13 02:16:40;;;;;;;24.25;7.85;;;;;;;10.94;100.00;100405.84;5012346;28;20421;-90
2023/10/13 02:19:08;;;;;;;23.15;7.80;;;;;;;10.98;100.00;100401.44;5001090;28;20422;-91
2023/10/13 02:21:40;;;;;;;22.38;7.97;;;;;;;10.92;100.00;100378.06;5001872;28;20432;-91
2023/10/13 02:24:13;;;;;;;23.17;7.55;;;;;;;11.02;100.00;100374.41;5007651;28;20423;-89
2023/10/13 02:26:42;;;;;;;23.73;8.17;;;;;;;11.09;100.00;100390.41;5003270;28;20435;-91
2023/10/13 02:29:12;;;;;;;27.45;8.30;;;;;;;10.99;100.00;100366.84;5007860;28;20930;-91
2023/10/13 02:31:53;;;;;;;25.40;7.60;;;;;;;11.02;100.00;100366.25;5006583;28;20409;-91
2023/10/13 02:34:22;;;;;;;21.70;8.85;;;;;;;11.10;100.00;100372.97;5007373;28;20420;-92
2023/10/13 02:36:51;;;;;;;27.75;8.70;;;;;;;11.05;100.00;100354.81;5009141;28;20427;-91
2023/10/13 02:39:25;;;;;;;27.38;9.10;;;;;;;11.04;100.00;100345.81;5004979;28;20449;-90
2023/10/13 02:41:55;;;;;;;32.72;9.45;;;;;;;11.03;100.00;100340.66;4998211;28;20425;-90
2023/10/13 02:44:28;;;;;;;34.55;10.10;;;;;;;11.21;100.00;100367.13;5000738;28;20424;-89
2023/10/13 02:46:56;;;;;;;29.65;9.52;;;;;;;11.14;100.00;100344.06;4988920;28;20913;-88
2023/10/13 02:49:26;;;;;;;27.63;10.02;;;;;;;11.17;100.00;100347.03;4996867;28;20477;-90
2023/10/13 02:51:55;;;;;;;28.05;10.23;;;;;;;11.26;100.00;100343.66;4995159;28;20405;-89
2023/10/13 02:54:30;;;;;;;26.60;10.00;;;;;;;11.25;100.00;100320.22;5000055;28;20892;-89
2023/10/13 02:56:58;;;;;;;32.78;10.80;;;;;;;11.30;100.00;100328.34;4991895;28;21125;-90
2023/10/13 02:59:38;;;;;;;27.80;10.80;;;;;;;11.25;100.00;100315.59;5006034;28;20455;-89
2023/10/13 03:02:17;;;;;;;29.05;10.38;;;;;;;11.30;100.00;100318.25;4980480;28;20913;-91
2023/10/13 03:04:46;;;;;;;35.13;11.00;;;;;;;11.36;100.00;100322.50;5000697;28;20438;-90
2023/10/13 03:07:15;;;;;;;29.17;11.45;;;;;;;11.32;100.00;100312.50;4998496;28;20423;-89
2023/10/13 03:09:50;;;;;;;28.88;12.18;;;;;;;11.34;100.00;100311.09;4982270;28;20428;-88
2023/10/13 03:12:19;;;;;;;29.02;11.13;;;;;;;11.39;100.00;100307.50;5005498;28;20429;-89
2023/10/13 03:14:48;;;;;;;30.30;11.32;;;;;;;11.51;100.00;100324.22;4992746;28;20418;-90
2023/10/13 03:17:19;;;;;;;31.58;11.05;;;;;;;11.52;100.00;100309.47;4998468;28;20441;-91
2023/10/13 03:19:49;;;;;;;32.13;11.13;;;;;;;11.58;100.00;100312.94;5011601;28;20420;-90
2023/10/13 03:22:18;;;;;;;29.98;11.73;;;;;;;11.52;100.00;100289.63;4993536;28;20967;-91
2023/10/13 03:24:48;;;;;;;28.30;11.73;;;;;;;11.57;100.00;100295.78;4978495;28;20420;-90
2023/10/13 03:27:16;;;;;;;36.63;11.63;;;;;;;11.71;100.00;100292.28;4995824;28;20431;-87
2023/10/13 03:29:47;;;;;;;32.58;12.20;;;;;;;11.76;100.00;100291.44;4998975;28;20433;-90
2023/10/13 03:32:17;;;;;;;32.17;11.70;;;;;;;11.71;100.00;100278.66;4993878;28;20442;-89
2023/10/13 03:35:11;;;;;;;30.17;12.00;;;;;;;11.78;100.00;100270.94;4982848;28;20419;-89
2023/10/13 03:37:40;;;;;;;36.65;12.23;;;;;;;11.80;100.00;100282.34;5012785;28;20409;-92
2023/10/13 03:40:34;;;;;;;32.95;11.75;;;;;;;11.82;100.00;100273.84;5000618;28;20428;-92
2023/10/13 03:43:05;;;;;;;28.70;11.40;;;;;;;11.83;100.00;100265.38;4995157;28;20779;-93
2023/10/13 03:45:38;;;;;;;29.35;12.02;;;;;;;11.73;100.00;100247.28;4996259;28;20421;-92
2023/10/13 03:48:27;;;;;;;24.70;11.50;;;;;;;11.76;100.00;100254.06;4992436;28;20425;-92
2023/10/13 03:51:06;;;;;;;25.45;11.50;;;;;;;11.95;100.00;100264.16;4982182;28;20408;-91
2023/10/13 03:53:50;;;;;;;27.20;11.82;;;;;;;11.82;100.00;100252.88;4982359;28;20804;-91
2023/10/13 03:56:26;;;;;;;30.92;12.02;;;;;;;12.01;100.00;100266.47;4985940;28;20437;-90
2023/10/13 03:58:58;;;;;;;31.73;11.65;;;;;;;11.82;100.00;100238.41;5000093;28;20425;-90
2023/10/13 04:01:34;;;;;;;28.55;12.00;;;;;;;12.04;100.00;100246.78;4981606;28;20421;-89
2023/10/13 04:04:11;;;;;;;29.00;12.20;;;;;;;12.03;100.00;100242.44;4981439;28;20448;-91
2023/10/13 04:07:13;;;;;;;28.35;11.77;;;;;;;12.13;100.00;100240.66;4982103;28;20441;-86
2023/10/13 04:16:01;;;;;;;31.50;12.00;;;;;;;12.16;100.00;100208.09;5000083;28;20436;-89
2023/10/13 04:18:49;;;;;;;26.83;11.87;;;;;;;12.20;100.00;100205.59;4980730;28;20418;-89
2023/10/13 04:21:39;;;;;;;27.13;11.45;;;;;;;12.25;100.00;100209.03;4997720;28;20799;-90
2023/10/13 04:24:37;;;;;;;26.23;10.95;;;;;;;12.20;100.00;100197.41;4998277;28;20771;-90
2023/10/13 04:27:39;;;;;;;24.75;10.95;;;;;;;12.20;100.00;100181.84;4981177;28;20459;-92
2023/10/13 04:30:24;;;;;;;22.75;9.82;;;;;;;12.30;100.00;100197.19;4980863;28;20778;-93
2023/10/13 04:36:13;;;;;;;23.73;9.77;;;;;;;12.45;100.00;100203.47;5143281;27;20402;-90
2023/10/13 04:38:56;;;;;;;19.15;9.05;;;;;;;12.55;100.00;100201.34;5110751;28;20785;-89
2023/10/13 04:41:37;;;;;;;20.00;8.93;;;;;;;12.52;100.00;100185.56;5118910;27;20457;-90
2023/10/13 04:49:49;;;;;;;23.00;9.65;;;;;;;12.56;100.00;100169.41;5138871;27;20399;-89
2023/10/13 04:55:43;;;;;;;27.48;10.63;;;;;;;12.64;100.00;100173.34;5059557;28;20421;-90
2023/10/13 04:58:41;;;;;;;27.00;10.70;;;;;;;12.69;100.00;100157.66;5116974;28;20415;-90
2023/10/13 05:01:49;;;;;;;28.05;11.27;;;;;;;12.70;100.00;100147.53;5115958;27;20426;-89
2023/10/13 05:04:38;;;;;;;30.70;10.80;;;;;;;12.75;100.00;100150.16;5118408;27;20432;-91
2023/10/13 05:52:18;;;;;;;57.10;18.85;;;;;;;13.58;100.00;100086.94;5111710;27;20425;-86
2023/10/13 06:28:54;;;;;;;68.70;23.75;;;;;;;14.03;100.00;100057.81;5089478;27;20421;-84
2023/10/13 06:31:25;;;;;;;78.25;24.70;;;;;;;14.14;100.00;100061.88;5094190;27;20435;-87
2023/10/13 06:33:56;;;;;;;73.63;23.90;;;;;;;14.22;100.00;100052.06;5100949;27;20432;-88
2023/10/13 06:36:29;;;;;;;78.03;24.65;;;;;;;14.18;100.00;100054.59;5106734;27;20418;-86
2023/10/13 06:39:34;;;;;;;72.00;24.65;;;;;;;14.28;100.00;100059.00;5121133;27;20405;-84
2023/10/13 06:41:52;;;;;;;77.35;24.75;;;;;;;14.28;100.00;100056.25;5103254;27;20415;-87
2023/10/13 06:44:26;;;;;;;78.15;24.95;;;;;;;14.25;100.00;100057.69;5100187;28;20422;-88
2023/10/13 06:47:03;;;;;;;72.75;25.08;;;;;;;14.35;100.00;100047.56;5101664;27;20431;-86
2023/10/13 06:49:39;;;;;;;72.85;25.98;;;;;;;14.35;100.00;100039.34;5124777;27;20422;-87
2023/10/13 06:52:07;;;;;;;80.33;25.10;;;;;;;14.33;100.00;100033.41;5123553;27;20422;-84
2023/10/13 06:54:42;;;;;;;76.07;24.80;;;;;;;14.41;100.00;100036.13;5101179;27;20922;-83
2023/10/13 06:57:14;;;;;;;72.68;25.20;;;;;;;14.47;100.00;100034.03;5117766;27;20420;-87
2023/10/13 06:59:42;;;;;;;70.85;25.60;;;;;;;14.45;100.00;100036.31;5119497;27;20904;-88
2023/10/13 07:02:20;;;;;;;72.38;25.52;;;;;;;14.45;100.00;100033.56;5104625;27;20426;-88
2023/10/13 07:04:56;;;;;;;76.30;26.08;;;;;;;14.44;100.00;100029.22;5106028;27;20424;-89
2023/10/13 07:07:25;;;;;;;71.45;25.65;;;;;;;14.52;100.00;100027.63;5112691;27;20443;-90
2023/10/13 07:09:58;;;;;;;77.50;26.77;;;;;;;14.47;100.00;100014.88;5102941;27;20424;-89
2023/10/13 07:12:27;;;;;;;73.90;26.77;;;;;;;14.55;100.00;100016.00;5100848;27;20473;-91
2023/10/13 07:15:10;;;;;;;74.43;26.50;;;;;;;14.55;100.00;100016.81;5100347;27;20424;-88
2023/10/13 07:17:40;;;;;;;76.20;26.30;;;;;;;14.56;100.00;100009.41;5106636;27;20440;-89
2023/10/13 07:20:23;;;;;;;76.43;26.40;;;;;;;14.59;100.00;100011.50;5036117;28;21103;-89
2023/10/13 07:22:57;;;;;;;73.78;27.02;;;;;;;14.64;100.00;100005.88;5046222;28;20431;-88
2023/10/13 07:25:26;;;;;;;66.47;25.95;;;;;;;14.65;100.00;100001.22;5033282;28;20430;-88
2023/10/13 07:27:59;;;;;;;69.00;26.05;;;;;;;14.67;100.00;99998.97;5040223;28;20732;-87
2023/10/13 07:30:29;;;;;;;70.05;26.38;;;;;;;14.70;100.00;100006.53;5032442;28;20427;-90
2023/10/13 07:32:59;;;;;;;66.18;25.52;;;;;;;14.76;100.00;99989.59;5038711;28;20417;-85
2023/10/13 07:35:31;;;;;;;72.85;25.40;;;;;;;14.71;100.00;99989.75;5041066;28;20432;-86
2023/10/13 07:38:00;;;;;;;73.10;26.58;;;;;;;14.75;100.00;99976.25;5038103;28;20467;-86
2023/10/13 07:40:49;;;;;;;71.72;26.40;;;;;;;14.76;100.00;99978.66;5035931;28;20448;-85
2023/10/13 07:43:23;;;;;;;72.88;26.70;;;;;;;14.88;100.00;99972.47;5034805;28;20439;-88
2023/10/13 07:45:53;;;;;;;67.65;25.98;;;;;;;14.80;100.00;99965.09;5032325;28;20435;-88
2023/10/13 07:48:26;;;;;;;65.68;25.48;;;;;;;14.92;100.00;99957.00;5039123;28;20427;-88
2023/10/13 07:51:04;;;;;;;63.90;25.20;;;;;;;14.93;100.00;99944.91;5030611;28;20435;-89
2023/10/13 07:53:35;;;;;;;58.42;24.70;;;;;;;14.89;100.00;99952.19;5035898;28;20428;-90
2023/10/13 07:56:05;;;;;;;63.95;24.85;;;;;;;14.82;100.00;99943.66;5036398;28;21020;-88
2023/10/13 07:58:33;;;;;;;60.33;23.97;;;;;;;14.87;100.00;99939.94;5037431;28;20440;-88
2023/10/13 08:01:07;;;;;;;61.50;24.42;;;;;;;14.91;100.00;99925.25;5051747;28;20433;-89
2023/10/13 08:03:43;;;;;;;54.90;23.20;;;;;;;14.98;100.00;99921.22;5029324;28;20429;-88
2023/10/13 08:06:20;;;;;;;59.78;22.80;;;;;;;14.93;100.00;99917.53;5037488;28;20457;-89
2023/10/13 08:08:53;;;;;;;54.20;22.30;;;;;;;14.90;100.00;99914.63;5047253;28;20913;-89
2023/10/13 08:11:34;;;;;;;51.50;21.17;;;;;;;14.94;100.00;99901.88;5035681;28;20424;-90
2023/10/13 08:14:22;;;;;;;48.50;20.33;;;;;;;14.99;100.00;99893.47;5031019;28;20439;-89
2023/10/13 08:16:54;;;;;;;47.78;20.60;;;;;;;14.93;100.00;99890.13;5034949;28;20430;-89
2023/10/13 08:19:27;;;;;;;47.17;19.77;;;;;;;14.95;100.00;99887.06;5015881;28;20426;-90
2023/10/13 08:22:47;;;;;;;44.53;20.40;;;;;;;15.02;100.00;99875.59;5022653;28;20433;-91
2023/10/13 08:25:33;;;;;;;46.13;19.60;;;;;;;14.99;100.00;99868.03;5010536;28;20928;-88
2023/10/13 08:28:45;;;;;;;43.90;19.52;;;;;;;15.05;100.00;99867.53;5031334;28;20928;-90
2023/10/13 08:30:55;;;;;;;40.00;17.70;;;;;;;15.01;100.00;99857.53;5036308;28;21059;-92
2023/10/13 08:33:27;;;;;;;42.03;18.73;;;;;;;15.01;100.00;99857.53;5027298;28;20844;-90
2023/10/13 08:36:17;;;;;;;42.55;18.73;;;;;;;15.19;100.00;99848.09;5030838;28;20765;-89
2023/10/13 08:38:57;;;;;;;39.97;18.52;;;;;;;15.09;100.00;99841.06;5033314;28;20435;-88
2023/10/13 08:41:29;;;;;;;40.72;17.45;;;;;;;15.06;100.00;99830.75;5046130;28;20437;-89
2023/10/13 08:44:09;;;;;;;40.60;17.73;;;;;;;15.06;100.00;99830.75;5049545;28;20411;-88
2023/10/13 08:47:05;;;;;;;36.30;16.83;;;;;;;15.06;100.00;99830.75;5029512;28;20997;-88
2023/10/13 08:49:40;;;;;;;35.05;16.65;;;;;;;15.06;100.00;99830.75;5032856;28;20434;-90
2023/10/13 08:55:13;;;;;;;35.03;16.52;;;;;;;15.06;100.00;99830.75;5026597;28;20426;-89
2023/10/13 08:57:49;;;;;;;33.72;15.25;;;;;;;15.06;100.00;99830.75;5025076;28;20428;-90
2023/10/13 09:00:55;;;;;;;26.77;13.73;;;;;;;15.06;100.00;99830.75;5024963;28;20432;-89
2023/10/13 09:03:39;;;;;;;29.30;13.73;;;;;;;15.06;100.00;99829.94;5025435;28;20436;-91
2023/10/13 09:06:14;;;;;;;27.88;13.25;;;;;;;15.06;100.00;99813.50;5026958;28;21089;-88
2023/10/13 09:09:04;;;;;;;25.75;12.48;;;;;;;14.98;100.00;99817.09;5023237;28;20419;-89
2023/10/13 09:11:48;;;;;;;21.77;11.70;;;;;;;14.96;100.00;99815.50;5031481;28;20900;-89
2023/10/13 09:17:12;;;;;;;21.75;11.05;;;;;;;15.03;100.00;99822.41;5020783;28;20447;-87
2023/10/13 09:19:47;;;;;;;22.23;10.82;;;;;;;14.94;100.00;99823.25;4999925;28;21088;-89
2023/10/13 09:22:35;;;;;;;19.70;10.07;;;;;;;14.97;100.00;99808.09;5043378;28;20430;-89
2023/10/13 09:25:05;;;;;;;19.85;9.55;;;;;;;14.96;100.00;99815.50;5040066;28;20432;-89
2023/10/13 09:27:37;;;;;;;18.25;8.82;;;;;;;14.93;100.00;99815.38;5041726;28;20421;-86
2023/10/13 09:30:09;;;;;;;17.23;8.68;;;;;;;14.97;100.00;99824.53;5034608;28;20439;-87
2023/10/13 09:32:49;;;;;;;16.58;8.20;;;;;;;14.93;100.00;99829.84;5032439;28;20431;-87
2023/10/13 09:35:18;;;;;;;19.30;8.65;;;;;;;14.96;100.00;99817.44;5032511;28;20519;-91
2023/10/13 09:37:47;;;;;;;16.30;8.30;;;;;;;15.03;100.00;99830.63;5036913;28;20435;-88
2023/10/13 09:40:33;;;;;;;14.70;7.30;;;;;;;15.09;100.00;99818.31;5036675;28;20458;-90
2023/10/13 09:43:05;;;;;;;14.93;7.10;;;;;;;15.14;100.00;99804.44;5035419;28;20427;-89
2023/10/13 09:45:39;;;;;;;14.27;6.60;;;;;;;15.21;100.00;99803.91;5045217;28;21170;-91
2023/10/13 09:48:16;;;;;;;13.40;6.33;;;;;;;15.19;100.00;99804.25;5039546;28;21838;-92
2023/10/13 09:50:48;;;;;;;13.45;6.75;;;;;;;15.24;100.00;99812.25;5036747;28;20429;-90
2023/10/13 09:53:23;;;;;;;16.13;8.40;;;;;;;15.23;100.00;99786.00;5042442;28;20812;-91
2023/10/13 09:56:11;;;;;;;18.30;7.47;;;;;;;15.25;100.00;99786.47;5039808;28;20426;-92
2023/10/13 09:58:47;;;;;;;14.35;7.78;;;;;;;15.34;100.00;99778.16;5047607;28;20428;-90
2023/10/13 10:01:50;;;;;;;13.73;7.53;;;;;;;15.39;100.00;99780.72;5040427;28;20429;-91
2023/10/13 10:04:23;;;;;;;14.68;7.90;;;;;;;15.48;100.00;99780.66;5039433;28;21162;-90
2023/10/13 10:06:57;;;;;;;13.00;6.60;;;;;;;15.43;100.00;99786.34;5039618;28;20432;-90
2023/10/13 10:09:34;;;;;;;12.18;6.05;;;;;;;15.50;100.00;99786.59;5042071;28;20441;-94
2023/10/13 10:12:19;;;;;;;11.85;6.20;;;;;;;15.54;100.00;99782.06;5038382;28;21459;-91
2023/10/13 10:15:06;;;;;;;11.75;6.38;;;;;;;15.64;100.00;99780.84;5038688;28;20428;-90
2023/10/13 10:17:42;;;;;;;15.13;6.77;;;;;;;15.68;100.00;99762.56;5041979;28;20909;-88
2023/10/13 10:20:19;;;;;;;14.88;6.03;;;;;;;15.64;100.00;99759.69;5013895;28;20424;-90
2023/10/13 10:22:59;;;;;;;10.20;5.60;;;;;;;15.67;100.00;99760.16;5045299;28;21138;-93
2023/10/13 10:25:34;;;;;;;20.00;11.20;;;;;;;15.76;100.00;99747.97;5037963;28;20439;-93
2023/10/13 10:28:06;;;;;;;10.88;5.50;;;;;;;15.70;100.00;99732.06;5038638;28;20427;-90
2023/10/13 10:30:41;;;;;;;11.73;6.00;;;;;;;15.70;100.00;99729.31;5055848;28;21252;-92
2023/10/13 10:33:13;;;;;;;14.33;5.67;;;;;;;15.73;100.00;99718.50;5042061;28;21623;-92
2023/10/13 10:35:42;;;;;;;14.43;5.93;;;;;;;15.68;100.00;99721.44;5039788;28;20430;-91
2023/10/13 10:38:11;;;;;;;13.95;5.85;;;;;;;15.76;100.00;99715.06;5040486;28;20475;-91
2023/10/13 10:40:56;;;;;;;14.20;6.10;;;;;;;15.78;100.00;99710.06;5045776;28;20883;-90
2023/10/13 10:43:29;;;;;;;12.13;5.73;;;;;;;15.82;100.00;99699.22;5042943;28;20429;-93
2023/10/13 10:46:00;;;;;;;14.60;5.82;;;;;;;15.88;100.00;99700.63;5036159;28;21005;-92
2023/10/13 10:48:34;;;;;;;13.45;6.05;;;;;;;15.91;100.00;99688.13;5043008;28;20426;-91
2023/10/13 10:51:13;;;;;;;11.73;5.70;;;;;;;16.02;100.00;99702.22;5036987;28;20416;-92
2023/10/13 10:53:45;;;;;;;14.60;6.35;;;;;;;15.94;100.00;99696.50;5036446;28;20905;-92
2023/10/13 10:56:23;;;;;;;13.57;6.03;;;;;;;16.02;100.00;99685.75;5038309;28;21804;-92
2023/10/13 10:58:58;;;;;;;15.82;6.82;;;;;;;16.02;100.00;99680.28;5032369;28;20424;-90
2023/10/13 11:01:38;;;;;;;13.88;6.45;;;;;;;15.98;100.00;99674.69;5032872;28;20426;-91
2023/10/13 11:04:18;;;;;;;15.45;6.90;;;;;;;15.98;100.00;99674.69;5043318;28;20426;-91
2023/10/13 11:06:46;;;;;;;12.18;6.43;;;;;;;15.98;100.00;99674.69;5034764;28;20437;-91
2023/10/13 11:09:31;;;;;;;17.00;6.70;;;;;;;15.98;100.00;99674.69;5038155;28;20479;-89
2023/10/13 11:12:14;;;;;;;18.55;8.15;;;;;;;15.98;100.00;99674.69;5041254;28;20435;-91
2023/10/13 11:14:47;;;;;;;15.45;7.45;;;;;;;15.98;100.00;99674.69;5038561;28;20437;-93
2023/10/13 11:17:24;;;;;;;16.35;7.20;;;;;;;15.98;100.00;99674.69;5043241;28;20440;-92
2023/10/13 11:19:55;;;;;;;13.82;6.95;;;;;;;15.98;100.00;99674.69;5012967;28;20938;-89
2023/10/13 11:22:36;;;;;;;17.17;7.65;;;;;;;15.98;100.00;99674.69;5042221;28;20426;-91
2023/10/13 11:25:11;;;;;;;16.02;7.68;;;;;;;15.98;100.00;99674.69;5036384;28;20425;-90
2023/10/13 11:27:56;;;;;;;13.60;7.07;;;;;;;15.98;100.00;99674.69;5046885;28;20437;-90
2023/10/13 11:33:12;;;;;;;19.23;7.15;;;;;;;15.98;100.00;99674.69;5040598;28;20437;-90
2023/10/13 11:38:43;;;;;;;15.50;7.32;;;;;;;-147.98;100.00;99674.69;5032448;28;20437;-91
2023/10/13 11:41:15;;;;;;;16.52;7.43;;;;;;;15.98;100.00;99674.69;5036941;28;20469;-92
2023/10/13 11:44:05;;;;;;;14.80;7.25;;;;;;;15.98;100.00;99674.69;5041180;28;20438;-93
2023/10/13 11:52:26;;;;;;;15.82;6.90;;;;;;;-147.98;100.00;69253.78;5037098;28;20437;-90
2023/10/13 11:54:59;;;;;;;17.25;7.10;;;;;;;-147.98;100.00;69253.78;5048156;28;20778;-92
2023/10/13 11:57:27;;;;;;;14.77;6.70;;;;;;;-147.98;100.00;69253.78;5038115;28;20515;-90
2023/10/13 12:00:16;;;;;;;15.27;6.90;;;;;;;-147.98;100.00;69253.78;5038684;28;20433;-92
2023/10/13 12:05:49;;;;;;;15.07;6.70;;;;;;;-147.98;100.00;69253.78;5037656;28;21717;-91
2023/10/13 12:08:32;;;;;;;16.17;7.10;;;;;;;-147.98;100.00;69253.78;5047754;28;20420;-89
2023/10/13 12:13:50;;;;;;;14.93;7.10;;;;;;;-147.98;100.00;69253.78;5036453;28;20998;-92
2023/10/13 12:16:19;;;;;;;19.42;7.22;;;;;;;-147.98;100.00;69253.78;5036300;28;20428;-91
2023/10/13 12:18:53;;;;;;;14.35;6.07;;;;;;;-147.98;100.00;69253.78;5033600;28;20440;-91
2023/10/13 12:21:43;;;;;;;15.23;6.47;;;;;;;-147.98;100.00;69253.78;5006266;28;20431;-89
2023/10/13 12:24:42;;;;;;;13.23;6.20;;;;;;;-147.98;100.00;69253.78;5033710;28;20437;-91
2023/10/13 12:27:20;;;;;;;14.13;6.38;;;;;;;-147.98;100.00;69253.78;5042229;28;20437;-93
2023/10/13 12:29:49;;;;;;;12.40;6.18;;;;;;;-147.98;100.00;69253.78;5041010;28;20444;-90
2023/10/13 12:32:30;;;;;;;17.90;6.25;;;;;;;-147.98;100.00;69253.78;5038936;28;20432;-92
2023/10/13 12:52:45;;;;;;;14.23;5.50;;;;;;;-147.98;100.00;69253.78;5037735;28;20433;-91
2023/10/13 12:55:52;;;;;;;17.70;5.30;;;;;;;-147.98;100.00;69253.78;5038680;28;20427;-90
2023/10/13 12:58:39;;;;;;;13.43;5.50;;;;;;;-147.98;100.00;69253.78;5044332;28;21099;-91
2023/10/13 13:01:20;;;;;;;12.43;5.18;;;;;;;-147.98;100.00;69253.78;5040762;28;20912;-89
2023/10/13 13:03:55;;;;;;;12.15;4.78;;;;;;;-147.98;100.00;69253.78;5041885;28;20433;-90
2023/10/13 13:06:32;;;;;;;16.63;5.22;;;;;;;-147.98;100.00;69253.78;5041841;28;20419;-91
2023/10/13 13:09:09;;;;;;;16.48;5.40;;;;;;;-147.98;100.00;69253.78;5037506;28;20427;-92
2023/10/13 13:11:39;;;;;;;17.13;5.22;;;;;;;-147.98;100.00;69253.78;5039408;28;20429;-90
2023/10/13 13:17:04;;;;;;;12.98;4.65;;;;;;;-147.98;100.00;69253.78;5046207;28;20947;-91
2023/10/13 13:19:40;;;;;;;17.13;5.75;;;;;;;-147.98;100.00;69253.78;5056896;28;20936;-92
2023/10/13 13:22:11;;;;;;;16.38;5.43;;;;;;;-147.98;100.00;69253.78;5013754;28;20438;-90
2023/10/13 13:24:43;;;;;;;14.50;5.22;;;;;;;-147.98;100.00;69253.78;5044410;28;20428;-89
2023/10/13 13:27:22;;;;;;;15.38;5.45;;;;;;;-147.98;100.00;69253.78;5047475;28;20806;-94
2023/10/13 13:29:55;;;;;;;14.98;5.63;;;;;;;-147.98;100.00;69253.78;5043523;28;20423;-93
2023/10/13 13:32:32;;;;;;;16.77;5.20;;;;;;;-147.98;100.00;69253.78;5043094;28;20415;-90
2023/10/13 13:35:05;;;;;;;15.50;5.60;;;;;;;-147.98;100.00;69253.78;5044961;28;21118;-93
2023/10/13 13:37:46;;;;;;;16.42;5.80;;;;;;;-147.98;100.00;69253.78;5042376;28;20438;-92
2023/10/13 13:48:31;;;;;;;14.95;5.20;;;;;;;-147.98;100.00;69253.78;5040354;28;21411;-92
2023/10/13 13:51:07;;;;;;;18.42;5.57;;;;;;;-147.98;100.00;69253.78;5026446;28;20514;-94
2023/10/13 13:53:48;;;;;;;15.57;5.80;;;;;;;-147.98;100.00;69253.78;5065927;28;20419;-94
2023/10/13 13:56:27;;;;;;;16.87;5.70;;;;;;;-147.98;100.00;69253.78;5044434;28;20425;-94
2023/10/13 13:59:08;;;;;;;13.23;5.30;;;;;;;-147.98;100.00;69253.78;5042340;28;20424;-92
2023/10/13 14:01:40;;;;;;;17.42;7.30;;;;;;;-147.98;100.00;69253.78;5040756;28;20437;-92
2023/10/13 14:04:21;;;;;;;16.27;5.60;;;;;;;-147.98;100.00;69253.78;5038062;28;20427;-92
2023/10/13 14:07:06;;;;;;;16.40;5.93;;;;;;;-147.98;100.00;69253.78;5042068;28;20436;-92
2023/10/13 14:09:44;;;;;;;14.45;5.25;;;;;;;-147.98;100.00;69253.78;5041797;28;20407;-89
2023/10/13 14:12:41;;;;;;;13.30;5.07;;;;;;;-147.98;100.00;69253.78;5044089;28;21124;-93
2023/10/13 14:15:23;;;;;;;14.45;5.63;;;;;;;-147.98;100.00;69253.78;5039016;28;20424;-91
2023/10/13 14:18:05;;;;;;;17.58;5.82;;;;;;;-147.98;100.00;69253.78;5040476;28;20437;-91